Airfield :
LOGIN :

Register | Disclaimer

   EN    FR    IT 

 










Legend :    VFR   Marginal VFR   IFR   Intensive IFR   Very Intensive IFR
Visi :
Ceiling :
>= 8 km
>= 3000ft
5 to 8 km
1000 to 3000 ft
1500m to 5 km
500 to 1000 ft
800 to 1500m
200 to 500 ft
< 800m
< 200 ft
Symbols :   Thunderstorms  Fog  Heavy snow  Heavy precipitations  Wind > 20 kt
SIGMETs :     Misc.  Thunderstorms  Icing  Turbulence  Mountain Waves  Volcanic Ashes







- Airport Elevation : 876 ft
- IATA code : MBX


LJMB - Maribor

CURRENT METAR :
  • 171430Z 01012KT 9999 SCT033 BKN083 M01/M07 Q1026 R99/911095

EXPIRED METARs :
  • 171400Z 01013KT 9999 SCT026 BKN083 M01/M07 Q1026 R99/911095
  • 171330Z 01015KT 9999 SCT025 BKN083 M01/M07 Q1026 R99/911095
  • 171300Z 01015KT 9999 SCT025 BKN083 M01/M07 Q1025 R99/911095
  • 171230Z 02011KT 9999 SCT025 BKN083 M00/M07 Q1025 R99/911095
  • 171200Z 02013KT 9999 SCT025 BKN083 M01/M07 Q1025 R99/911095

TAF TAF LJMB
Valid from the 17 at 15:00 until the 18 at 15:00 UTC


171400Z 1715/1815 36010KT 9999 FEW030 BKN070
PROB40
TEMPO 1715/1815 01015G25KT -SN BKN035 OVC050
No reported NOTAMs for that airfield.
1 SIGMET reported for the Ljubljana FIR (LJLA) :
 
Severe turbulence
LJLA SIGMET 3 VALID 171200/171600 LJLJ
LJLA LJUBLJANA FIR SEV TURB FCST SW OF LINE N46 E01345 - N4540 E01425 SFC/6000FT STNR NC=



MET'MAP, your aeronautical weather chart ! - Copyright ORBIFLY December 2007 - Disclaimer

ORBIFLY MET'MAP TEAM :

Programming & Development : Alexandra Zaïnal
Concept & Development : Baudouin d'Aumeries
Co-Development & Prog : Marc-Olivier Méhu
Technical & hardware support : Manuel Goepfert

Contact : metmap@orbifly.com




SOURCES & CREDITS :

   NOAA